createdAt,value
2023-04-28T00:00:12.790Z,1005.85
2023-04-28T00:01:12.773Z,1005.86
2023-04-28T00:02:12.771Z,1005.86
2023-04-28T00:03:12.835Z,1005.83
2023-04-28T00:04:13.055Z,1005.82
2023-04-28T00:05:12.836Z,1005.84
2023-04-28T00:06:12.751Z,1005.82
2023-04-28T00:07:12.745Z,1005.78
2023-04-28T00:08:12.734Z,1005.80
2023-04-28T00:09:12.735Z,1005.81
2023-04-28T00:10:12.738Z,1005.84
2023-04-28T00:11:12.718Z,1005.86
2023-04-28T00:12:12.732Z,1005.81
2023-04-28T00:13:12.737Z,1005.81
2023-04-28T00:14:12.720Z,1005.75
2023-04-28T00:15:12.697Z,1005.71
2023-04-28T00:16:12.726Z,1005.69
2023-04-28T00:17:12.709Z,1005.69
2023-04-28T00:18:12.748Z,1005.63
2023-04-28T00:19:12.680Z,1005.72
2023-04-28T00:20:12.664Z,1005.73
2023-04-28T00:21:12.673Z,1005.68
2023-04-28T00:22:12.664Z,1005.65
2023-04-28T00:23:12.666Z,1005.65
2023-04-28T00:24:12.668Z,1005.67
2023-04-28T00:25:12.639Z,1005.69
2023-04-28T00:26:12.640Z,1005.67
2023-04-28T00:27:12.626Z,1005.66
2023-04-28T00:28:16.130Z,1005.69
2023-04-28T00:29:12.642Z,1005.64
2023-04-28T00:30:12.624Z,1005.67
2023-04-28T00:31:12.645Z,1005.69
2023-04-28T00:32:12.648Z,1005.70
2023-04-28T00:33:12.593Z,1005.66
2023-04-28T00:34:12.646Z,1005.66
2023-04-28T00:35:12.582Z,1005.62
2023-04-28T00:36:12.581Z,1005.61
2023-04-28T00:37:12.589Z,1005.64
2023-04-28T00:38:12.566Z,1005.59
2023-04-28T00:39:12.564Z,1005.57
2023-04-28T00:40:12.555Z,1005.54
2023-04-28T00:41:12.549Z,1005.51
2023-04-28T00:42:12.552Z,1005.55
2023-04-28T00:43:12.551Z,1005.50
2023-04-28T00:44:33.540Z,1005.52
2023-04-28T00:45:12.522Z,1005.51
2023-04-28T00:46:12.557Z,1005.45
2023-04-28T00:47:12.516Z,1005.48
2023-04-28T00:48:12.508Z,1005.36
2023-04-28T00:49:12.500Z,1005.39
2023-04-28T00:50:12.517Z,1005.37
2023-04-28T00:51:12.492Z,1005.33
2023-04-28T00:52:12.492Z,1005.40
2023-04-28T00:53:12.494Z,1005.42
2023-04-28T00:54:12.473Z,1005.41
2023-04-28T00:55:12.474Z,1005.39
2023-04-28T00:56:12.469Z,1005.44
2023-04-28T00:57:12.463Z,1005.38
2023-04-28T00:58:12.459Z,1005.32
2023-04-28T00:59:12.450Z,1005.30
2023-04-28T01:00:12.443Z,1005.28
2023-04-28T01:01:12.492Z,1005.23
2023-04-28T01:02:12.453Z,1005.23
2023-04-28T01:03:12.604Z,1005.22
2023-04-28T01:04:12.566Z,1005.21
2023-04-28T01:05:12.425Z,1005.18
2023-04-28T01:06:12.414Z,1005.16
2023-04-28T01:07:12.408Z,1005.16
2023-04-28T01:08:12.394Z,1005.14
2023-04-28T01:09:12.393Z,1005.12
2023-04-28T01:10:12.394Z,1005.11
2023-04-28T01:11:12.377Z,1005.09
2023-04-28T01:12:12.374Z,1005.03
2023-04-28T01:13:12.369Z,1005.04
2023-04-28T01:14:12.367Z,1005.02
2023-04-28T01:15:12.357Z,1005.01
2023-04-28T01:16:12.373Z,1004.96
2023-04-28T01:17:12.364Z,1004.96
2023-04-28T01:18:12.420Z,1004.93
2023-04-28T01:19:12.335Z,1004.90
2023-04-28T01:20:12.332Z,1004.93
2023-04-28T01:21:12.321Z,1004.88
2023-04-28T01:22:12.315Z,1004.91
2023-04-28T01:23:12.311Z,1004.93
2023-04-28T01:24:12.304Z,1004.90
2023-04-28T01:25:12.297Z,1004.91
2023-04-28T01:26:12.289Z,1004.95
2023-04-28T01:27:12.283Z,1004.95
2023-04-28T01:28:12.282Z,1004.97
2023-04-28T01:29:12.273Z,1004.99
2023-04-28T01:30:12.272Z,1004.97
2023-04-28T01:31:12.271Z,1005.06
2023-04-28T01:32:12.256Z,1005.03
2023-04-28T01:33:12.256Z,1005.07
2023-04-28T01:34:12.241Z,1005.09
2023-04-28T01:35:12.239Z,1005.08
2023-04-28T01:36:12.248Z,1005.07
2023-04-28T01:37:12.235Z,1005.09
2023-04-28T01:38:12.250Z,1005.08
2023-04-28T01:39:12.235Z,1005.08
2023-04-28T01:40:12.219Z,1005.11
2023-04-28T01:41:12.208Z,1005.08
2023-04-28T01:42:12.210Z,1005.07
2023-04-28T01:43:12.198Z,1005.09
2023-04-28T01:44:12.186Z,1005.07
2023-04-28T01:45:12.178Z,1005.02
2023-04-28T01:46:12.298Z,1004.98
2023-04-28T01:47:12.176Z,1004.97
2023-04-28T01:48:12.208Z,1004.94
2023-04-28T01:49:12.158Z,1004.98
2023-04-28T01:50:12.158Z,1004.91
2023-04-28T01:51:12.148Z,1004.92
2023-04-28T01:52:12.142Z,1004.91
2023-04-28T01:53:12.146Z,1004.92
2023-04-28T01:54:12.132Z,1004.91
2023-04-28T01:55:12.132Z,1004.97
2023-04-28T01:56:12.116Z,1004.98
2023-04-28T01:57:12.115Z,1004.96
2023-04-28T01:58:12.111Z,1004.97
2023-04-28T01:59:12.101Z,1004.90
2023-04-28T02:00:12.093Z,1004.96
2023-04-28T02:01:12.123Z,1004.92
2023-04-28T02:02:12.103Z,1004.96
2023-04-28T02:03:12.156Z,1004.92
2023-04-28T02:04:12.086Z,1004.94
2023-04-28T02:05:12.087Z,1004.94
2023-04-28T02:06:12.052Z,1004.89
2023-04-28T02:07:12.054Z,1004.90
2023-04-28T02:08:12.052Z,1004.89
2023-04-28T02:09:12.041Z,1004.85
2023-04-28T02:10:12.037Z,1004.84
2023-04-28T02:11:12.034Z,1004.89
2023-04-28T02:12:12.031Z,1004.91
2023-04-28T02:13:12.049Z,1004.93
2023-04-28T02:14:12.027Z,1004.91
2023-04-28T02:15:12.011Z,1004.96
2023-04-28T02:16:12.029Z,1004.88
2023-04-28T02:17:12.000Z,1004.91
2023-04-28T02:18:11.987Z,1004.96
2023-04-28T02:19:11.992Z,1004.95
2023-04-28T02:20:11.979Z,1004.92
2023-04-28T02:21:11.994Z,1004.92
2023-04-28T02:22:11.963Z,1004.92
2023-04-28T02:23:11.958Z,1004.88
2023-04-28T02:24:11.950Z,1004.85
2023-04-28T02:25:11.946Z,1004.74
2023-04-28T02:26:11.941Z,1004.73
2023-04-28T02:27:11.935Z,1004.69
2023-04-28T02:28:11.919Z,1004.71
2023-04-28T02:29:11.926Z,1004.72
2023-04-28T02:30:11.921Z,1004.69
2023-04-28T02:31:11.990Z,1004.71
2023-04-28T02:32:11.914Z,1004.72
2023-04-28T02:33:11.919Z,1004.71
2023-04-28T02:34:11.887Z,1004.77
2023-04-28T02:35:11.881Z,1004.75
2023-04-28T02:36:11.884Z,1004.72
2023-04-28T02:37:11.876Z,1004.73
2023-04-28T02:38:11.883Z,1004.70
2023-04-28T02:39:11.871Z,1004.68
2023-04-28T02:40:11.868Z,1004.70
2023-04-28T02:41:11.854Z,1004.74
2023-04-28T02:42:11.852Z,1004.67
2023-04-28T02:43:11.839Z,1004.67
2023-04-28T02:44:11.828Z,1004.61
2023-04-28T02:45:11.836Z,1004.61
2023-04-28T02:46:11.834Z,1004.59
2023-04-28T02:47:11.818Z,1004.61
2023-04-28T02:48:11.874Z,1004.59
2023-04-28T02:49:11.816Z,1004.60
2023-04-28T02:50:11.806Z,1004.59
2023-04-28T02:51:11.795Z,1004.56
2023-04-28T02:52:11.789Z,1004.54
2023-04-28T02:53:11.788Z,1004.57
2023-04-28T02:54:11.773Z,1004.52
2023-04-28T02:55:11.768Z,1004.48
2023-04-28T02:56:11.772Z,1004.52
2023-04-28T02:57:11.763Z,1004.51
2023-04-28T02:58:11.756Z,1004.51
2023-04-28T02:59:11.753Z,1004.53
2023-04-28T03:00:11.746Z,1004.56
2023-04-28T03:01:11.776Z,1004.57
2023-04-28T03:02:11.729Z,1004.58
2023-04-28T03:03:11.881Z,1004.58
2023-04-28T03:04:11.881Z,1004.52
2023-04-28T03:05:11.720Z,1004.52
2023-04-28T03:06:11.709Z,1004.50
2023-04-28T03:07:11.716Z,1004.53
2023-04-28T03:08:11.713Z,1004.53
2023-04-28T03:09:11.689Z,1004.55
2023-04-28T03:10:11.688Z,1004.56
2023-04-28T03:11:11.682Z,1004.59
2023-04-28T03:12:11.675Z,1004.57
2023-04-28T03:13:11.666Z,1004.55
2023-04-28T03:14:11.665Z,1004.56
2023-04-28T03:15:13.956Z,1004.52
2023-04-28T03:16:11.701Z,1004.49
2023-04-28T03:17:11.646Z,1004.46
2023-04-28T03:18:11.638Z,1004.47
2023-04-28T03:19:11.632Z,1004.42
2023-04-28T03:20:11.629Z,1004.39
2023-04-28T03:21:11.623Z,1004.36
2023-04-28T03:22:11.611Z,1004.40
2023-04-28T03:23:11.615Z,1004.40
2023-04-28T03:24:11.604Z,1004.35
2023-04-28T03:25:11.605Z,1004.32
2023-04-28T03:26:11.588Z,1004.30
2023-04-28T03:27:11.592Z,1004.32
2023-04-28T03:28:11.585Z,1004.24
2023-04-28T03:29:11.578Z,1004.25
2023-04-28T03:30:11.567Z,1004.26
2023-04-28T03:31:11.556Z,1004.15
2023-04-28T03:32:11.664Z,1004.20
2023-04-28T03:33:11.600Z,1004.19
2023-04-28T03:34:11.543Z,1004.18
2023-04-28T03:35:11.542Z,1004.16
2023-04-28T03:36:11.530Z,1004.20
2023-04-28T03:37:11.524Z,1004.17
2023-04-28T03:38:11.528Z,1004.13
2023-04-28T03:39:11.518Z,1004.09
2023-04-28T03:40:11.508Z,1004.12
2023-04-28T03:41:11.499Z,1004.05
2023-04-28T03:42:11.494Z,1004.04
2023-04-28T03:43:11.503Z,1004.01
2023-04-28T03:44:11.482Z,1003.99
2023-04-28T03:45:11.479Z,1003.96
2023-04-28T03:46:11.505Z,1003.98
2023-04-28T03:47:11.468Z,1003.94
2023-04-28T03:48:11.489Z,1003.93
2023-04-28T03:49:11.526Z,1003.93
2023-04-28T03:50:11.446Z,1003.93
2023-04-28T03:51:11.447Z,1003.94
2023-04-28T03:52:11.452Z,1003.93
2023-04-28T03:53:11.442Z,1003.84
2023-04-28T03:54:11.423Z,1003.89
2023-04-28T03:55:11.423Z,1003.90
2023-04-28T03:56:11.409Z,1003.90
2023-04-28T03:57:11.413Z,1003.90
2023-04-28T03:58:11.396Z,1003.95
2023-04-28T03:59:11.396Z,1003.87
2023-04-28T04:00:11.392Z,1003.87
2023-04-28T04:01:11.395Z,1003.85
2023-04-28T04:02:11.420Z,1003.87
2023-04-28T04:03:11.553Z,1003.88
2023-04-28T04:04:11.658Z,1003.87
2023-04-28T04:05:11.428Z,1003.87
2023-04-28T04:06:11.349Z,1003.85
2023-04-28T04:07:11.342Z,1003.88
2023-04-28T04:08:11.334Z,1003.84
2023-04-28T04:09:11.326Z,1003.84
2023-04-28T04:10:11.321Z,1003.82
2023-04-28T04:11:11.318Z,1003.81
2023-04-28T04:12:11.316Z,1003.77
2023-04-28T04:13:11.309Z,1003.76
2023-04-28T04:14:11.306Z,1003.70
2023-04-28T04:15:11.303Z,1003.67
2023-04-28T04:16:11.327Z,1003.65
2023-04-28T04:17:11.281Z,1003.67
2023-04-28T04:18:11.351Z,1003.63
2023-04-28T04:19:11.260Z,1003.62
2023-04-28T04:20:11.262Z,1003.61
2023-04-28T04:21:11.248Z,1003.54
2023-04-28T04:22:11.245Z,1003.49
2023-04-28T04:23:11.242Z,1003.47
2023-04-28T04:24:11.237Z,1003.44
2023-04-28T04:25:11.225Z,1003.40
2023-04-28T04:26:11.216Z,1003.38
2023-04-28T04:27:11.216Z,1003.40
2023-04-28T04:28:11.206Z,1003.39
2023-04-28T04:29:11.211Z,1003.39
2023-04-28T04:30:11.194Z,1003.38
2023-04-28T04:31:11.216Z,1003.36
2023-04-28T04:32:11.182Z,1003.41
2023-04-28T04:33:11.175Z,1003.43
2023-04-28T04:34:11.168Z,1003.46
2023-04-28T04:35:11.159Z,1003.46
2023-04-28T04:36:11.166Z,1003.46
2023-04-28T04:37:11.153Z,1003.42
2023-04-28T04:38:11.140Z,1003.42
2023-04-28T04:39:11.133Z,1003.43
2023-04-28T04:40:11.133Z,1003.42
2023-04-28T04:41:11.118Z,1003.39
2023-04-28T04:42:23.999Z,1003.34
2023-04-28T04:43:11.104Z,1003.37
2023-04-28T04:44:12.096Z,1003.40
2023-04-28T04:45:11.087Z,1003.40
2023-04-28T04:46:12.111Z,1003.43
2023-04-28T04:47:11.093Z,1003.40
2023-04-28T04:48:11.095Z,1003.42
2023-04-28T04:49:11.067Z,1003.41
2023-04-28T04:50:11.058Z,1003.44
2023-04-28T04:51:11.055Z,1003.43
2023-04-28T04:52:11.049Z,1003.46
2023-04-28T04:53:14.689Z,1003.46
2023-04-28T04:54:11.025Z,1003.47
2023-04-28T04:55:11.023Z,1003.45
2023-04-28T04:56:11.018Z,1003.41
2023-04-28T04:57:11.012Z,1003.36
2023-04-28T04:58:10.998Z,1003.35
2023-04-28T04:59:11.002Z,1003.33
2023-04-28T05:00:10.994Z,1003.37
2023-04-28T05:01:10.984Z,1003.37
2023-04-28T05:02:13.090Z,1003.42
2023-04-28T05:03:11.018Z,1003.45
2023-04-28T05:04:11.204Z,1003.57
2023-04-28T05:05:20.302Z,1003.67
2023-04-28T05:06:10.953Z,1003.72
2023-04-28T05:07:10.950Z,1003.75
2023-04-28T05:08:10.950Z,1003.75
2023-04-28T05:09:10.931Z,1003.85
2023-04-28T05:10:10.927Z,1003.83
2023-04-28T05:11:10.922Z,1003.81
2023-04-28T05:12:10.927Z,1003.83
2023-04-28T05:13:10.907Z,1003.84
2023-04-28T05:14:10.900Z,1003.88
2023-04-28T05:15:10.927Z,1003.87
2023-04-28T05:16:10.913Z,1003.90
2023-04-28T05:17:10.882Z,1003.86
2023-04-28T05:18:11.073Z,1003.87
2023-04-28T05:19:10.878Z,1003.91
2023-04-28T05:20:12.751Z,1003.87
2023-04-28T05:21:10.857Z,1003.86
2023-04-28T05:22:10.851Z,1003.87
2023-04-28T05:23:10.849Z,1003.87
2023-04-28T05:24:10.841Z,1003.88
2023-04-28T05:25:10.834Z,1003.85
2023-04-28T05:26:10.833Z,1003.88
2023-04-28T05:27:10.830Z,1003.84
2023-04-28T05:28:10.818Z,1003.86
2023-04-28T05:29:10.808Z,1003.83
2023-04-28T05:30:10.888Z,1003.82
2023-04-28T05:31:10.796Z,1003.81
2023-04-28T05:32:10.844Z,1003.80
2023-04-28T05:33:10.802Z,1003.80
2023-04-28T05:34:10.775Z,1003.81
2023-04-28T05:35:10.781Z,1003.79
2023-04-28T05:36:10.763Z,1003.79
2023-04-28T05:37:10.751Z,1003.81
2023-04-28T05:38:10.760Z,1003.79
2023-04-28T05:39:11.790Z,1003.76
2023-04-28T05:40:11.752Z,1003.79
2023-04-28T05:41:10.753Z,1003.76
2023-04-28T05:42:10.742Z,1003.76
2023-04-28T05:43:10.714Z,1003.67
2023-04-28T05:44:10.706Z,1003.73
2023-04-28T05:45:10.706Z,1003.74
2023-04-28T05:46:28.207Z,1003.69
2023-04-28T05:47:10.691Z,1003.69
2023-04-28T05:48:10.719Z,1003.71
2023-04-28T05:49:10.678Z,1003.70
2023-04-28T05:50:10.672Z,1003.71
2023-04-28T05:51:10.669Z,1003.72
2023-04-28T05:52:10.660Z,1003.72
2023-04-28T05:53:10.657Z,1003.69
2023-04-28T05:54:10.663Z,1003.71
2023-04-28T05:55:10.656Z,1003.68
2023-04-28T05:56:10.630Z,1003.71
2023-04-28T05:57:10.630Z,1003.73
2023-04-28T05:58:10.625Z,1003.72
2023-04-28T05:59:10.620Z,1003.69
2023-04-28T06:00:10.611Z,1003.69
2023-04-28T06:01:10.615Z,1003.63
2023-04-28T06:02:10.621Z,1003.65
2023-04-28T06:03:10.744Z,1003.65
2023-04-28T06:04:10.741Z,1003.61
2023-04-28T06:05:10.764Z,1003.58
2023-04-28T06:06:10.728Z,1003.54
2023-04-28T06:07:10.563Z,1003.49
2023-04-28T06:08:10.562Z,1003.48
2023-04-28T06:09:10.556Z,1003.43
2023-04-28T06:10:10.557Z,1003.44
2023-04-28T06:11:10.536Z,1003.44
2023-04-28T06:12:10.535Z,1003.49
2023-04-28T06:13:11.362Z,1003.50
2023-04-28T06:14:10.520Z,1003.46
2023-04-28T06:15:10.514Z,1003.42
2023-04-28T06:16:10.551Z,1003.40
2023-04-28T06:17:10.501Z,1003.40
2023-04-28T06:18:10.539Z,1003.35
2023-04-28T06:19:10.488Z,1003.33
2023-04-28T06:20:10.489Z,1003.31
2023-04-28T06:21:10.479Z,1003.30
2023-04-28T06:22:10.469Z,1003.32
2023-04-28T06:23:10.456Z,1003.36
2023-04-28T06:24:10.458Z,1003.40
2023-04-28T06:25:10.446Z,1003.42
2023-04-28T06:26:10.453Z,1003.47
2023-04-28T06:27:10.434Z,1003.43
2023-04-28T06:28:10.430Z,1003.41
2023-04-28T06:29:10.422Z,1003.39
2023-04-28T06:30:10.434Z,1003.43
2023-04-28T06:31:10.457Z,1003.42
2023-04-28T06:32:10.406Z,1003.40
2023-04-28T06:33:10.398Z,1003.41
2023-04-28T06:34:10.385Z,1003.41
2023-04-28T06:35:10.388Z,1003.46
2023-04-28T06:36:10.382Z,1003.50
2023-04-28T06:37:11.431Z,1003.52
2023-04-28T06:38:10.367Z,1003.49
2023-04-28T06:39:10.362Z,1003.48
2023-04-28T06:40:10.356Z,1003.47
2023-04-28T06:41:10.345Z,1003.47
2023-04-28T06:42:10.341Z,1003.45
2023-04-28T06:43:10.347Z,1003.50
2023-04-28T06:44:10.345Z,1003.50
2023-04-28T06:45:10.320Z,1003.52
2023-04-28T06:46:11.401Z,1003.53
2023-04-28T06:47:31.335Z,1003.50
2023-04-28T06:48:10.321Z,1003.50
2023-04-28T06:49:10.303Z,1003.54
2023-04-28T06:50:10.296Z,1003.54
2023-04-28T06:51:10.296Z,1003.58
2023-04-28T06:52:10.295Z,1003.54
2023-04-28T06:53:10.285Z,1003.60
2023-04-28T06:54:10.269Z,1003.52
2023-04-28T06:55:10.300Z,1003.53
2023-04-28T06:56:11.453Z,1003.55
2023-04-28T06:57:10.251Z,1003.53
2023-04-28T06:58:10.263Z,1003.57
2023-04-28T06:59:10.246Z,1003.57
2023-04-28T07:00:10.234Z,1003.59
2023-04-28T07:01:10.264Z,1003.60
2023-04-28T07:02:10.241Z,1003.63
2023-04-28T07:03:10.356Z,1003.67
2023-04-28T07:04:10.366Z,1003.65
2023-04-28T07:05:10.207Z,1003.69
2023-04-28T07:06:10.195Z,1003.69
2023-04-28T07:07:10.191Z,1003.64
2023-04-28T07:08:10.189Z,1003.66
2023-04-28T07:09:10.184Z,1003.59
2023-04-28T07:10:10.173Z,1003.60
2023-04-28T07:11:10.174Z,1003.58
2023-04-28T07:12:10.172Z,1003.59
2023-04-28T07:13:10.153Z,1003.67
2023-04-28T07:14:10.164Z,1003.64
2023-04-28T07:15:10.475Z,1003.63
2023-04-28T07:16:10.178Z,1003.62
2023-04-28T07:17:10.129Z,1003.63
2023-04-28T07:18:10.177Z,1003.61
2023-04-28T07:19:10.307Z,1003.67
2023-04-28T07:20:10.115Z,1003.68
2023-04-28T07:21:10.109Z,1003.67
2023-04-28T07:22:10.116Z,1003.69
2023-04-28T07:23:10.092Z,1003.71
2023-04-28T07:24:10.082Z,1003.68
2023-04-28T07:25:10.087Z,1003.71
2023-04-28T07:26:10.072Z,1003.71
2023-04-28T07:27:10.076Z,1003.77
2023-04-28T07:28:10.064Z,1003.74
2023-04-28T07:29:10.063Z,1003.77
2023-04-28T07:30:24.994Z,1003.75
2023-04-28T07:31:10.047Z,1003.74
2023-04-28T07:32:10.107Z,1003.68
2023-04-28T07:33:10.061Z,1003.69
2023-04-28T07:34:10.036Z,1003.71
2023-04-28T07:35:10.027Z,1003.72
2023-04-28T07:36:10.026Z,1003.74
2023-04-28T07:37:10.018Z,1003.76
2023-04-28T07:38:10.026Z,1003.80
2023-04-28T07:39:10.012Z,1003.79
2023-04-28T07:40:09.988Z,1003.84
2023-04-28T07:41:11.263Z,1003.84
2023-04-28T07:42:09.988Z,1003.86
2023-04-28T07:43:09.980Z,1003.82
2023-04-28T07:44:09.968Z,1003.81
2023-04-28T07:45:09.976Z,1003.85
2023-04-28T07:46:10.144Z,1003.85
2023-04-28T07:47:09.969Z,1003.79
2023-04-28T07:48:10.024Z,1003.81
2023-04-28T07:49:10.020Z,1003.75
2023-04-28T07:50:09.931Z,1003.68
2023-04-28T07:51:09.926Z,1003.66
2023-04-28T07:52:09.926Z,1003.62
2023-04-28T07:53:09.933Z,1003.70
2023-04-28T07:54:09.916Z,1003.71
2023-04-28T07:55:09.909Z,1003.71
2023-04-28T07:56:09.905Z,1003.77
2023-04-28T07:57:09.898Z,1003.77
2023-04-28T07:58:09.894Z,1003.77
2023-04-28T07:59:09.887Z,1003.75
2023-04-28T08:00:09.881Z,1003.75
2023-04-28T08:01:09.889Z,1003.75
2023-04-28T08:02:09.893Z,1003.77
2023-04-28T08:03:10.055Z,1003.72
2023-04-28T08:04:10.050Z,1003.79
2023-04-28T08:05:10.512Z,1003.74
2023-04-28T08:06:09.920Z,1003.71
2023-04-28T08:07:09.852Z,1003.78
2023-04-28T08:08:09.845Z,1003.71
2023-04-28T08:09:09.849Z,1003.66
2023-04-28T08:10:09.829Z,1003.66
2023-04-28T08:11:09.836Z,1003.67
2023-04-28T08:12:09.819Z,1003.68
2023-04-28T08:13:09.811Z,1003.70
2023-04-28T08:14:09.848Z,1003.74
2023-04-28T08:15:09.805Z,1003.79
2023-04-28T08:16:09.870Z,1003.76
2023-04-28T08:17:09.794Z,1003.71
2023-04-28T08:18:09.841Z,1003.70
2023-04-28T08:19:09.786Z,1003.67
2023-04-28T08:20:09.783Z,1003.67
2023-04-28T08:21:09.803Z,1003.64
2023-04-28T08:22:09.763Z,1003.72
2023-04-28T08:23:09.765Z,1003.75
2023-04-28T08:24:09.761Z,1003.76
2023-04-28T08:25:09.747Z,1003.74
2023-04-28T08:26:09.747Z,1003.65
2023-04-28T08:27:09.736Z,1003.64
2023-04-28T08:28:09.757Z,1003.65
2023-04-28T08:29:09.726Z,1003.69
2023-04-28T08:30:09.748Z,1003.72
2023-04-28T08:31:09.788Z,1003.73
2023-04-28T08:32:09.739Z,1003.73
2023-04-28T08:33:09.790Z,1003.68
2023-04-28T08:34:09.706Z,1003.70
2023-04-28T08:35:09.701Z,1003.73
2023-04-28T08:36:09.704Z,1003.74
2023-04-28T08:37:30.700Z,1003.79
2023-04-28T08:38:09.683Z,1003.79
2023-04-28T08:39:11.163Z,1003.82
2023-04-28T08:40:10.006Z,1003.81
2023-04-28T08:41:09.681Z,1003.80
2023-04-28T08:42:09.664Z,1003.83
2023-04-28T08:43:09.661Z,1003.79
2023-04-28T08:44:09.660Z,1003.81
2023-04-28T08:45:09.655Z,1003.75
2023-04-28T08:46:09.681Z,1003.73
2023-04-28T08:47:09.639Z,1003.77
2023-04-28T08:48:09.686Z,1003.76
2023-04-28T08:49:09.641Z,1003.81
2023-04-28T08:50:09.630Z,1003.84
2023-04-28T08:51:09.616Z,1003.84
2023-04-28T08:52:09.610Z,1003.87
2023-04-28T08:53:09.606Z,1003.79
2023-04-28T08:55:09.599Z,1003.77
2023-04-28T08:56:09.596Z,1003.75
2023-04-28T08:57:09.620Z,1003.81
2023-04-28T08:58:09.578Z,1003.76
2023-04-28T08:59:09.644Z,1003.75
2023-04-28T09:00:09.588Z,1003.75
2023-04-28T09:01:09.576Z,1003.77
2023-04-28T09:02:09.744Z,1003.78
2023-04-28T09:03:09.635Z,1003.80
2023-04-28T09:04:11.881Z,1003.80
2023-04-28T09:05:09.754Z,1003.81
2023-04-28T09:06:09.543Z,1003.83
2023-04-28T09:07:09.589Z,1003.87
2023-04-28T09:08:09.536Z,1003.91
2023-04-28T09:09:09.529Z,1003.92
2023-04-28T09:10:09.526Z,1003.97
2023-04-28T09:11:09.571Z,1003.95
2023-04-28T09:12:09.559Z,1003.95
2023-04-28T09:13:09.511Z,1003.89
2023-04-28T09:14:09.525Z,1003.92
2023-04-28T09:15:09.508Z,1003.88
2023-04-28T09:16:09.516Z,1003.83
2023-04-28T09:17:09.490Z,1003.83
2023-04-28T09:18:09.515Z,1003.79
2023-04-28T09:19:09.489Z,1003.81
2023-04-28T09:20:09.477Z,1003.79
2023-04-28T09:21:09.473Z,1003.75
2023-04-28T09:22:24.980Z,1003.77
2023-04-28T09:23:09.454Z,1003.72
2023-04-28T09:24:09.462Z,1003.73
2023-04-28T09:25:09.450Z,1003.71
2023-04-28T09:26:09.445Z,1003.75
2023-04-28T09:27:09.441Z,1003.73
2023-04-28T09:28:09.442Z,1003.74
2023-04-28T09:29:09.436Z,1003.74
2023-04-28T09:30:09.434Z,1003.73
2023-04-28T09:31:09.426Z,1003.75
2023-04-28T09:32:09.473Z,1003.73
2023-04-28T09:33:11.428Z,1003.71
2023-04-28T09:34:09.439Z,1003.73
2023-04-28T09:35:09.417Z,1003.74
2023-04-28T09:36:09.407Z,1003.73
2023-04-28T09:37:09.397Z,1003.69
2023-04-28T09:38:09.401Z,1003.68
2023-04-28T09:39:09.435Z,1003.68
2023-04-28T09:40:09.420Z,1003.62
2023-04-28T09:41:09.393Z,1003.63
2023-04-28T09:42:09.377Z,1003.65
2023-04-28T09:43:18.964Z,1003.64
2023-04-28T09:44:09.367Z,1003.68
2023-04-28T09:45:09.366Z,1003.65
2023-04-28T09:46:09.380Z,1003.65
2023-04-28T09:47:09.363Z,1003.66
2023-04-28T09:48:09.368Z,1003.62
2023-04-28T09:49:09.338Z,1003.67
2023-04-28T09:50:09.351Z,1003.66
2023-04-28T09:51:10.990Z,1003.64
2023-04-28T09:52:09.333Z,1003.67
2023-04-28T09:53:09.330Z,1003.64
2023-04-28T09:54:09.322Z,1003.66
2023-04-28T09:55:09.369Z,1003.62
2023-04-28T09:56:09.310Z,1003.63
2023-04-28T09:57:09.334Z,1003.63
2023-04-28T09:58:09.333Z,1003.59
2023-04-28T09:59:09.317Z,1003.62
2023-04-28T10:00:09.531Z,1003.55
2023-04-28T10:01:09.356Z,1003.56
2023-04-28T10:02:32.054Z,1003.55
2023-04-28T10:03:09.398Z,1003.57
2023-04-28T10:04:09.353Z,1003.60
2023-04-28T10:05:10.079Z,1003.61
2023-04-28T10:06:09.271Z,1003.57
2023-04-28T10:07:09.266Z,1003.61
2023-04-28T10:08:09.257Z,1003.59
2023-04-28T10:09:09.269Z,1003.60
2023-04-28T10:10:09.258Z,1003.59
2023-04-28T10:11:09.257Z,1003.58
2023-04-28T10:12:09.254Z,1003.57
2023-04-28T10:13:09.251Z,1003.56
2023-04-28T10:14:09.230Z,1003.54
2023-04-28T10:15:09.238Z,1003.53
2023-04-28T10:16:09.313Z,1003.52
2023-04-28T10:17:09.214Z,1003.52
2023-04-28T10:18:09.314Z,1003.52
2023-04-28T10:19:09.227Z,1003.50
2023-04-28T10:20:09.229Z,1003.50
2023-04-28T10:21:09.196Z,1003.52
2023-04-28T10:22:09.193Z,1003.51
2023-04-28T10:23:09.192Z,1003.51
2023-04-28T10:24:09.199Z,1003.49
2023-04-28T10:25:09.190Z,1003.46
2023-04-28T10:26:09.172Z,1003.47
2023-04-28T10:27:09.180Z,1003.49
2023-04-28T10:28:09.165Z,1003.50
2023-04-28T10:29:09.168Z,1003.51
2023-04-28T10:30:23.053Z,1003.55
2023-04-28T10:31:09.209Z,1003.56
2023-04-28T10:32:09.151Z,1003.58
2023-04-28T10:33:09.252Z,1003.54
2023-04-28T10:34:09.138Z,1003.53
2023-04-28T10:35:09.141Z,1003.54
2023-04-28T10:36:09.171Z,1003.54
2023-04-28T10:37:09.130Z,1003.53
2023-04-28T10:38:09.128Z,1003.53
2023-04-28T10:39:09.125Z,1003.55
2023-04-28T10:40:09.121Z,1003.51
2023-04-28T10:41:09.112Z,1003.55
2023-04-28T10:42:09.107Z,1003.46
2023-04-28T10:43:09.110Z,1003.50
2023-04-28T10:44:09.101Z,1003.51
2023-04-28T10:45:09.103Z,1003.48
2023-04-28T10:46:09.175Z,1003.51
2023-04-28T10:47:09.107Z,1003.53
2023-04-28T10:48:10.146Z,1003.56
2023-04-28T10:49:09.089Z,1003.52
2023-04-28T10:50:09.092Z,1003.52
2023-04-28T10:51:09.077Z,1003.53
2023-04-28T10:52:09.065Z,1003.49
2023-04-28T10:53:09.068Z,1003.50
2023-04-28T10:54:09.091Z,1003.49
2023-04-28T10:55:19.374Z,1003.51
2023-04-28T10:56:09.059Z,1003.49
2023-04-28T10:57:09.067Z,1003.50
2023-04-28T10:58:09.044Z,1003.48
2023-04-28T10:59:09.041Z,1003.51
2023-04-28T11:00:09.048Z,1003.48
2023-04-28T11:01:09.064Z,1003.46
2023-04-28T11:02:09.151Z,1003.46
2023-04-28T11:03:09.173Z,1003.43
2023-04-28T11:04:09.171Z,1003.41
2023-04-28T11:05:09.270Z,1003.40
2023-04-28T11:06:09.020Z,1003.36
2023-04-28T11:07:09.007Z,1003.29
2023-04-28T11:08:09.014Z,1003.32
2023-04-28T11:09:08.999Z,1003.28
2023-04-28T11:10:08.999Z,1003.29
2023-04-28T11:11:09.001Z,1003.25
2023-04-28T11:12:08.982Z,1003.29
2023-04-28T11:13:08.982Z,1003.34
2023-04-28T11:14:08.983Z,1003.34
2023-04-28T11:15:08.984Z,1003.35
2023-04-28T11:16:09.035Z,1003.33
2023-04-28T11:17:08.995Z,1003.36
2023-04-28T11:18:09.009Z,1003.33
2023-04-28T11:19:08.959Z,1003.38
2023-04-28T11:20:08.965Z,1003.40
2023-04-28T11:21:08.952Z,1003.35
2023-04-28T11:22:08.943Z,1003.31
2023-04-28T11:23:08.947Z,1003.32
2023-04-28T11:24:08.947Z,1003.33
2023-04-28T11:25:08.931Z,1003.33
2023-04-28T11:26:08.924Z,1003.29
2023-04-28T11:27:08.929Z,1003.32
2023-04-28T11:28:08.918Z,1003.33
2023-04-28T11:29:08.918Z,1003.36
2023-04-28T11:30:08.912Z,1003.34
2023-04-28T11:31:08.908Z,1003.38
2023-04-28T11:32:09.121Z,1003.35
2023-04-28T11:33:08.966Z,1003.30
2023-04-28T11:34:08.895Z,1003.30
2023-04-28T11:35:08.900Z,1003.30
2023-04-28T11:36:08.886Z,1003.28
2023-04-28T11:37:08.884Z,1003.28
2023-04-28T11:38:08.879Z,1003.27
2023-04-28T11:39:08.886Z,1003.28
2023-04-28T11:40:08.897Z,1003.26
2023-04-28T11:41:08.871Z,1003.24
2023-04-28T11:42:08.899Z,1003.27
2023-04-28T11:43:08.868Z,1003.24
2023-04-28T11:44:08.856Z,1003.28
2023-04-28T11:45:08.853Z,1003.25
2023-04-28T11:46:08.900Z,1003.30
2023-04-28T11:47:08.855Z,1003.28
2023-04-28T11:48:08.862Z,1003.26
2023-04-28T11:49:08.862Z,1003.27
2023-04-28T11:50:08.836Z,1003.25
2023-04-28T11:51:08.840Z,1003.24
2023-04-28T11:52:08.877Z,1003.25
2023-04-28T11:53:08.825Z,1003.22
2023-04-28T11:54:10.919Z,1003.17
2023-04-28T11:55:08.825Z,1003.14
2023-04-28T11:56:08.829Z,1003.16
2023-04-28T11:57:08.818Z,1003.16
2023-04-28T11:58:08.818Z,1003.14
2023-04-28T11:59:08.812Z,1003.18
2023-04-28T12:00:08.886Z,1003.14
2023-04-28T12:01:08.817Z,1003.14
2023-04-28T12:02:08.844Z,1003.19
2023-04-28T12:03:08.923Z,1003.13
2023-04-28T12:04:08.999Z,1003.10
2023-04-28T12:05:08.846Z,1003.12
2023-04-28T12:06:08.787Z,1003.10